Time;durP1;ratioP1;P1;durP2;ratioP2;P2;SDS_P1;SDS_P2;PMS_P1;PMS_P2;Temp;Humidity;BMP_temperature;BMP_pressure;BME280_temperature;BME280_humidity;BME280_pressure;Samples;Min_cycle;Max_cycle;Signal;HPM_P1;HPM_P2
2021/05/15 00:00:09;;;;;;;23.27;7.97;;;;;;;11.46;100.00;100613.41;1741018;81;20998;-83
2021/05/15 00:02:36;;;;;;;18.57;8.33;;;;;;;11.54;100.00;100624.51;1741253;81;21177;-84
2021/05/15 00:05:05;;;;;;;17.73;7.25;;;;;;;11.53;100.00;100618.02;1741592;81;21167;-83
2021/05/15 00:07:32;;;;;;;18.48;7.15;;;;;;;11.52;100.00;100611.00;1744031;81;21642;-84
2021/05/15 00:09:58;;;;;;;17.45;6.67;;;;;;;11.50;100.00;100603.70;1741305;81;21043;-83
2021/05/15 00:12:24;;;;;;;19.15;7.25;;;;;;;11.51;100.00;100603.99;1741030;81;20911;-83
2021/05/15 00:14:51;;;;;;;15.35;6.75;;;;;;;11.52;100.00;100602.91;1740501;82;21739;-84
2021/05/15 00:17:18;;;;;;;19.75;6.78;;;;;;;11.49;100.00;100603.44;1741013;82;20990;-83
2021/05/15 00:19:44;;;;;;;13.62;6.30;;;;;;;11.49;100.00;100599.39;1740946;82;21602;-83
2021/05/15 00:22:10;;;;;;;17.17;6.28;;;;;;;11.45;100.00;100593.72;1740230;81;20887;-83
2021/05/15 00:24:36;;;;;;;16.25;6.15;;;;;;;11.37;100.00;100586.13;1740368;81;21014;-83
2021/05/15 00:27:02;;;;;;;11.45;5.22;;;;;;;11.34;100.00;100588.81;1740106;82;21140;-83
2021/05/15 00:29:28;;;;;;;15.10;6.60;;;;;;;11.33;100.00;100593.14;1740236;81;20970;-83
2021/05/15 00:31:54;;;;;;;16.10;6.90;;;;;;;11.25;100.00;100589.06;1741159;81;20919;-84
2021/05/15 00:34:20;;;;;;;12.47;6.67;;;;;;;11.23;100.00;100588.50;1740204;81;20939;-84
2021/05/15 00:36:46;;;;;;;12.85;6.10;;;;;;;11.24;100.00;100593.39;1740558;81;20895;-83
2021/05/15 00:39:12;;;;;;;12.70;6.10;;;;;;;11.25;100.00;100599.05;1740610;81;21896;-83
2021/05/15 00:41:39;;;;;;;11.12;5.70;;;;;;;11.27;100.00;100602.30;1740939;81;21088;-84
2021/05/15 00:46:38;;;;;;;11.63;6.05;;;;;;;11.27;100.00;100613.89;1670076;85;21592;-83
2021/05/15 00:49:06;;;;;;;14.87;6.10;;;;;;;11.21;100.00;100614.14;1673165;85;21604;-83
2021/05/15 00:51:34;;;;;;;14.25;6.40;;;;;;;11.16;100.00;100614.12;1673151;85;22114;-83
2021/05/15 00:54:02;;;;;;;12.25;6.28;;;;;;;11.19;100.00;100620.33;1669285;85;21088;-83
2021/05/15 00:56:29;;;;;;;14.95;6.53;;;;;;;11.10;100.00;100612.73;1673320;85;21044;-84
2021/05/15 00:58:57;;;;;;;17.17;6.55;;;;;;;11.06;100.00;100610.81;1673056;85;21016;-84
2021/05/15 01:01:23;;;;;;;14.68;7.33;;;;;;;11.04;100.00;100612.44;1666181;86;21052;-83
2021/05/15 01:03:50;;;;;;;17.50;6.40;;;;;;;11.05;100.00;100616.75;1666374;86;21088;-83
2021/05/15 01:06:16;;;;;;;11.45;5.90;;;;;;;11.05;100.00;100615.94;1666241;86;20968;-83
2021/05/15 01:08:45;;;;;;;12.98;6.00;;;;;;;11.02;100.00;100624.02;1666381;86;21055;-83
2021/05/15 01:11:16;;;;;;;10.18;5.65;;;;;;;11.01;100.00;100635.89;1672318;85;21090;-84
2021/05/15 01:13:57;;;;;;;16.45;6.58;;;;;;;11.02;100.00;100637.50;1673145;85;21024;-83
2021/05/15 01:16:24;;;;;;;14.13;6.17;;;;;;;10.99;100.00;100634.52;1673201;85;22116;-84
2021/05/15 01:18:51;;;;;;;17.50;6.30;;;;;;;10.95;100.00;100643.67;1673050;85;21024;-83
2021/05/15 01:21:18;;;;;;;13.35;6.12;;;;;;;10.93;100.00;100635.56;1673210;85;21580;-83
2021/05/15 01:23:44;;;;;;;15.85;6.42;;;;;;;10.95;100.00;100633.43;1695826;82;20990;-83
2021/05/15 01:26:20;;;;;;;17.20;6.60;;;;;;;10.96;100.00;100635.85;1742423;81;21058;-83
2021/05/15 01:28:50;;;;;;;17.60;6.22;;;;;;;11.04;100.00;100637.25;1741202;81;21038;-83
2021/05/15 01:31:15;;;;;;;18.82;6.90;;;;;;;11.06;100.00;100636.43;1740456;81;21038;-83
2021/05/15 01:33:42;;;;;;;15.15;6.33;;;;;;;11.06;100.00;100634.57;1742260;81;20899;-83
2021/05/15 01:36:08;;;;;;;13.88;6.12;;;;;;;11.09;100.00;100637.28;1740197;81;20982;-83
2021/05/15 01:38:35;;;;;;;14.13;6.40;;;;;;;11.13;100.00;100632.98;1740654;81;20986;-83
2021/05/15 01:41:05;;;;;;;12.47;5.90;;;;;;;11.15;100.00;100630.84;1740483;82;21041;-83
2021/05/15 01:43:32;;;;;;;13.55;5.80;;;;;;;11.21;100.00;100623.05;1686910;84;21061;-83
2021/05/15 01:45:58;;;;;;;11.78;5.80;;;;;;;11.29;100.00;100621.70;1686682;84;21065;-83
2021/05/15 01:48:24;;;;;;;16.77;5.80;;;;;;;11.29;100.00;100612.27;1705066;81;21075;-84
2021/05/15 01:51:00;;;;;;;13.22;6.22;;;;;;;11.29;100.00;100615.77;1715337;83;21620;-83
2021/05/15 01:53:30;;;;;;;11.70;5.75;;;;;;;11.31;100.00;100612.28;1715058;83;21771;-84
2021/05/15 01:55:58;;;;;;;19.35;5.87;;;;;;;11.30;100.00;100609.86;1600145;88;21470;-84
2021/05/15 01:58:25;;;;;;;16.48;6.03;;;;;;;11.32;100.00;100615.27;1600480;88;21629;-84
2021/05/15 02:00:52;;;;;;;14.40;5.50;;;;;;;11.35;100.00;100603.11;1621591;88;21077;-85
2021/05/15 02:03:20;;;;;;;15.03;5.65;;;;;;;11.35;100.00;100598.55;1621840;88;21046;-85
2021/05/15 02:05:50;;;;;;;14.95;5.05;;;;;;;11.36;100.00;100596.13;1622004;87;21584;-84
2021/05/15 02:08:18;;;;;;;13.15;5.20;;;;;;;11.35;100.00;100601.77;1558700;89;21751;-84
2021/05/15 02:10:44;;;;;;;13.08;5.05;;;;;;;11.36;100.00;100608.26;1553392;91;21823;-84
2021/05/15 02:13:11;;;;;;;13.05;5.42;;;;;;;11.41;100.00;100616.09;1552639;91;21665;-84
2021/05/15 02:15:37;;;;;;;12.65;4.75;;;;;;;11.43;100.00;100614.75;1553089;91;21632;-84
2021/05/15 02:18:05;;;;;;;16.00;5.10;;;;;;;11.49;100.00;100606.14;1552619;91;21664;-84
2021/05/15 02:20:32;;;;;;;9.28;4.80;;;;;;;11.47;100.00;100605.07;1552463;91;21669;-84
2021/05/15 02:22:58;;;;;;;15.13;5.00;;;;;;;11.46;100.00;100601.27;1552869;91;21129;-84
2021/05/15 02:25:26;;;;;;;39.03;12.25;;;;;;;11.46;100.00;100604.77;1552744;92;21082;-84
2021/05/15 02:27:53;;;;;;;30.20;9.65;;;;;;;11.48;100.00;100604.52;1552674;91;21149;-84
2021/05/15 02:30:22;;;;;;;25.62;8.70;;;;;;;11.49;100.00;100598.04;1552923;91;21821;-83
2021/05/15 02:32:48;;;;;;;20.97;7.60;;;;;;;11.49;100.00;100596.15;1552531;92;21158;-85
2021/05/15 02:35:15;;;;;;;15.40;6.03;;;;;;;11.51;100.00;100597.24;1552920;91;21234;-84
2021/05/15 02:37:41;;;;;;;17.05;6.50;;;;;;;11.52;100.00;100593.45;1551450;91;21137;-84
2021/05/15 02:40:09;;;;;;;15.05;5.80;;;;;;;11.51;100.00;100599.95;1555892;89;21104;-84
2021/05/15 02:42:36;;;;;;;13.72;4.83;;;;;;;11.46;100.00;100591.83;1612163;89;21939;-84
2021/05/15 02:45:05;;;;;;;18.98;6.22;;;;;;;11.51;100.00;100601.30;1612135;89;21525;-84
2021/05/15 02:47:31;;;;;;;17.87;5.67;;;;;;;11.58;100.00;100608.59;1601271;89;21600;-84
2021/05/15 02:49:57;;;;;;;13.95;4.75;;;;;;;11.63;100.00;100615.36;1596560;89;20899;-84
2021/05/15 02:52:23;;;;;;;15.35;5.55;;;;;;;11.69;100.00;100618.88;1621130;85;20869;-84
2021/05/15 02:54:49;;;;;;;11.15;5.47;;;;;;;11.82;100.00;100625.10;1704453;84;21580;-84
2021/05/15 02:57:15;;;;;;;11.40;5.33;;;;;;;12.03;100.00;100615.20;1701760;84;20867;-85
2021/05/15 02:59:41;;;;;;;11.48;5.47;;;;;;;12.28;100.00;100621.95;1705939;83;21038;-85
2021/05/15 03:02:07;;;;;;;12.25;5.58;;;;;;;12.61;100.00;100615.70;1705691;84;21561;-85
2021/05/15 03:04:33;;;;;;;13.08;5.70;;;;;;;12.80;100.00;100622.72;1695991;81;21077;-85
2021/05/15 03:06:59;;;;;;;15.03;6.05;;;;;;;13.11;100.00;100619.91;1736525;82;21131;-85
2021/05/15 03:09:25;;;;;;;13.65;5.00;;;;;;;13.34;100.00;100624.72;1736576;82;21069;-85
2021/05/15 03:11:51;;;;;;;11.45;4.95;;;;;;;13.62;100.00;100628.66;1741819;82;20993;-85
2021/05/15 03:14:17;;;;;;;11.00;4.00;;;;;;;14.02;100.00;100632.74;1741890;82;20847;-85
2021/05/15 03:16:43;;;;;;;8.00;3.83;;;;;;;14.37;100.00;100647.13;1741747;82;21093;-85
2021/05/15 03:19:09;;;;;;;5.87;3.30;;;;;;;15.11;100.00;100640.45;1741702;82;21771;-85
2021/05/15 03:21:35;;;;;;;9.10;3.05;;;;;;;15.97;100.00;100642.35;1741891;82;21029;-85
2021/05/15 03:24:02;;;;;;;9.50;3.35;;;;;;;17.09;100.00;100647.82;1741877;82;20978;-85
2021/05/15 03:26:28;;;;;;;9.28;3.30;;;;;;;18.28;100.00;100646.36;1741775;82;21065;-86
2021/05/15 03:28:53;;;;;;;5.55;2.70;;;;;;;19.30;100.00;100636.86;1741921;82;21091;-86
2021/05/15 03:31:19;;;;;;;5.05;2.72;;;;;;;20.20;100.00;100629.47;1749915;81;21070;-85
2021/05/15 03:33:45;;;;;;;7.97;2.77;;;;;;;20.89;100.00;100621.69;1741120;81;20962;-85
2021/05/15 03:36:11;;;;;;;9.83;3.37;;;;;;;21.83;100.00;100613.81;1762784;80;20986;-86
2021/05/15 03:38:37;;;;;;;5.75;2.60;;;;;;;22.66;91.08;100625.22;1752519;81;20937;-85
2021/05/15 03:41:03;;;;;;;6.22;2.42;;;;;;;22.70;68.90;100628.08;1758743;80;20874;-85
2021/05/15 03:43:29;;;;;;;4.85;2.08;;;;;;;22.35;74.35;100634.73;1765341;80;21728;-86
2021/05/15 03:45:56;;;;;;;5.35;2.25;;;;;;;22.14;76.97;100633.37;1762543;81;21077;-85
2021/05/15 03:48:22;;;;;;;9.33;2.25;;;;;;;21.81;76.80;100637.45;1762837;80;21046;-85
2021/05/15 03:50:50;;;;;;;5.97;2.20;;;;;;;21.54;80.87;100639.58;1741564;81;21074;-85
2021/05/15 03:53:16;;;;;;;6.17;2.55;;;;;;;21.26;81.58;100646.08;1762946;80;20967;-85
2021/05/15 03:55:43;;;;;;;4.40;2.22;;;;;;;20.86;81.89;100638.78;1762613;81;21102;-85
2021/05/15 03:58:09;;;;;;;10.15;2.92;;;;;;;20.73;84.98;100636.47;1762657;80;21062;-86
2021/05/15 04:00:35;;;;;;;8.90;3.10;;;;;;;20.59;84.06;100638.62;1762701;81;21046;-85
2021/05/15 04:03:02;;;;;;;7.80;2.40;;;;;;;20.09;86.60;100626.81;1762822;81;21037;-86
2021/05/15 04:05:28;;;;;;;8.93;2.72;;;;;;;20.02;89.46;100625.94;1759444;81;21486;-86
2021/05/15 04:07:54;;;;;;;14.83;2.90;;;;;;;20.16;90.22;100632.63;1769783;80;21084;-85
2021/05/15 04:10:22;;;;;;;4.78;2.00;;;;;;;20.26;88.56;100627.37;1783778;80;21442;-86
2021/05/15 04:18:09;;;;;;;6.80;2.52;;;;;;;21.96;88.52;100628.61;1682883;85;21560;-86
2021/05/15 04:20:39;;;;;;;3.30;2.20;;;;;;;23.34;75.09;100631.00;1654033;86;21205;-86
2021/05/15 04:23:07;;;;;;;4.12;2.10;;;;;;;24.13;65.63;100633.94;1654169;86;21187;-87
2021/05/15 04:25:34;;;;;;;4.45;2.55;;;;;;;24.17;59.02;100645.84;1653991;86;21085;-87
2021/05/15 04:28:00;;;;;;;7.17;2.70;;;;;;;24.80;60.15;100641.07;1654053;86;21104;-86
2021/05/15 04:30:27;;;;;;;4.65;2.33;;;;;;;25.78;56.50;100642.98;1654116;86;21644;-86
2021/05/15 04:32:54;;;;;;;4.08;2.27;;;;;;;26.71;54.95;100642.08;1654214;86;21160;-87
2021/05/15 04:35:22;;;;;;;6.78;2.45;;;;;;;27.34;48.63;100639.36;1654125;86;21283;-87
2021/05/15 04:37:49;;;;;;;7.35;2.42;;;;;;;28.15;46.10;100633.34;1654026;86;21077;-87
2021/05/15 04:40:16;;;;;;;5.08;2.25;;;;;;;29.00;41.79;100633.95;1654081;86;21703;-84
2021/05/15 04:42:42;;;;;;;4.80;2.55;;;;;;;28.96;43.62;100631.15;1654127;86;21093;-84
2021/05/15 04:45:14;;;;;;;5.72;3.00;;;;;;;29.50;42.64;100639.07;1654141;86;21245;-84
2021/05/15 04:47:41;;;;;;;6.33;3.50;;;;;;;30.18;42.24;100640.21;1654452;86;21110;-84
2021/05/15 04:50:10;;;;;;;5.17;3.35;;;;;;;31.00;39.63;100641.77;1654234;86;21029;-84
2021/05/15 04:52:37;;;;;;;6.53;2.80;;;;;;;31.13;39.71;100646.31;1653938;85;21108;-84
2021/05/15 04:55:06;;;;;;;4.83;2.40;;;;;;;31.24;37.81;100635.17;1654462;86;21073;-84
2021/05/15 04:57:32;;;;;;;8.10;2.52;;;;;;;31.14;38.80;100639.54;1654141;86;21844;-83
2021/05/15 04:59:58;;;;;;;5.53;2.20;;;;;;;32.13;36.57;100641.09;1654081;86;21197;-84
2021/05/15 05:02:24;;;;;;;5.20;2.00;;;;;;;32.95;34.84;100641.14;1654136;86;20894;-85
2021/05/15 05:04:50;;;;;;;5.33;2.20;;;;;;;34.08;31.35;100643.95;1654095;86;20961;-83
2021/05/15 05:07:16;;;;;;;8.08;2.35;;;;;;;32.96;32.39;100642.11;1654114;86;20978;-83
2021/05/15 05:09:42;;;;;;;2.98;2.10;;;;;;;33.08;34.61;100634.47;1656830;86;21287;-83
2021/05/15 05:12:09;;;;;;;6.55;2.00;;;;;;;33.42;34.01;100635.92;1670528;85;21187;-83
2021/05/15 05:14:38;;;;;;;9.03;2.83;;;;;;;33.84;30.96;100628.27;1686631;85;21005;-85
2021/05/15 05:17:05;;;;;;;4.72;2.10;;;;;;;34.51;32.18;100639.75;1678213;85;21610;-84
2021/05/15 05:19:31;;;;;;;3.83;2.00;;;;;;;34.43;30.10;100644.66;1664905;85;21088;-85
2021/05/15 05:21:59;;;;;;;2.25;1.82;;;;;;;36.31;28.19;100638.80;1664676;86;21127;-84
2021/05/15 05:24:25;;;;;;;5.45;2.17;;;;;;;35.76;28.45;100641.77;1716690;81;21089;-86
2021/05/15 05:26:50;;;;;;;3.02;2.00;;;;;;;35.88;28.84;100650.14;1736738;82;20927;-86
2021/05/15 05:29:16;;;;;;;8.18;2.10;;;;;;;35.58;28.94;100652.56;1736750;82;20942;-84
2021/05/15 05:31:44;;;;;;;5.97;2.05;;;;;;;35.14;28.08;100651.76;1736666;82;20974;-85
2021/05/15 05:34:11;;;;;;;2.22;1.70;;;;;;;35.20;29.41;100650.05;1736665;81;21063;-86
2021/05/15 05:36:38;;;;;;;4.85;2.00;;;;;;;35.10;27.80;100651.04;1742623;81;21042;-90
2021/05/15 05:39:12;;;;;;;3.35;1.82;;;;;;;35.73;28.57;100651.05;1738155;82;21081;-87
2021/05/15 05:41:38;;;;;;;4.65;2.25;;;;;;;36.11;28.20;100654.27;1729292;81;21053;-87
2021/05/15 05:44:06;;;;;;;3.12;2.70;;;;;;;37.34;25.25;100655.73;1744953;82;20887;-86
2021/05/15 05:46:32;;;;;;;3.08;2.12;;;;;;;36.79;26.49;100649.89;1737476;82;21796;-86
2021/05/15 05:48:58;;;;;;;3.85;2.42;;;;;;;35.85;27.84;100630.75;1736452;82;21041;-87
2021/05/15 05:51:24;;;;;;;6.80;2.20;;;;;;;35.47;29.16;100632.52;1736664;82;21038;-87
2021/05/15 05:53:50;;;;;;;7.87;2.50;;;;;;;37.17;26.70;100654.19;1737448;82;21154;-86
2021/05/15 05:56:18;;;;;;;9.08;2.50;;;;;;;37.04;27.03;100655.54;1737427;82;20987;-86
2021/05/15 05:58:45;;;;;;;10.80;2.80;;;;;;;36.76;27.90;100661.22;1736389;82;21069;-85
2021/05/15 06:01:14;;;;;;;8.25;2.67;;;;;;;36.95;27.15;100665.97;1737009;81;21012;-86
2021/05/15 06:03:41;;;;;;;9.45;2.60;;;;;;;37.24;27.18;100666.05;1703255;83;21093;-86
2021/05/15 06:06:07;;;;;;;4.92;2.40;;;;;;;37.46;27.17;100659.83;1701628;84;21144;-86
2021/05/15 06:08:33;;;;;;;5.72;2.72;;;;;;;38.14;26.16;100652.27;1701415;82;21700;-87
2021/05/15 06:11:00;;;;;;;4.87;2.50;;;;;;;39.47;23.80;100663.58;1701012;84;21140;-86
2021/05/15 06:13:26;;;;;;;4.33;2.40;;;;;;;39.21;24.08;100657.27;1701065;83;21061;-86
2021/05/15 06:15:52;;;;;;;8.10;2.45;;;;;;;38.55;25.28;100660.47;1703948;84;21081;-87
2021/05/15 06:18:18;;;;;;;12.50;2.80;;;;;;;38.24;25.05;100662.43;1705332;83;21133;-86
2021/05/15 06:20:45;;;;;;;4.58;2.50;;;;;;;38.36;25.14;100655.23;1705496;83;21616;-87
2021/05/15 06:23:11;;;;;;;3.35;2.60;;;;;;;37.77;25.10;100657.97;1702255;83;21645;-87
2021/05/15 06:25:37;;;;;;;2.95;2.67;;;;;;;37.71;23.71;100661.95;1705517;83;20898;-86
2021/05/15 06:28:03;;;;;;;8.30;3.00;;;;;;;38.97;24.62;100663.13;1705169;83;21212;-87
2021/05/15 06:30:29;;;;;;;8.08;3.40;;;;;;;38.70;24.62;100660.79;1705493;83;21050;-86
2021/05/15 06:32:55;;;;;;;4.83;2.90;;;;;;;39.06;23.93;100663.20;1702238;84;21545;-87
2021/05/15 06:35:21;;;;;;;3.52;2.65;;;;;;;39.48;23.59;100662.98;1705821;84;21063;-86
2021/05/15 06:37:47;;;;;;;7.78;3.22;;;;;;;38.96;22.37;100665.79;1705738;84;21033;-86
2021/05/15 06:40:13;;;;;;;5.17;3.00;;;;;;;39.95;23.17;100663.48;1705986;84;20966;-88
2021/05/15 06:42:40;;;;;;;3.98;2.90;;;;;;;40.16;23.65;100666.88;1705841;83;21053;-86
2021/05/15 06:45:08;;;;;;;9.20;2.83;;;;;;;40.93;22.75;100664.02;1705902;83;21085;-87
2021/05/15 06:47:35;;;;;;;3.72;3.12;;;;;;;41.31;21.58;100665.80;1705886;83;21125;-88
2021/05/15 06:50:02;;;;;;;4.50;2.80;;;;;;;41.76;20.75;100671.89;1705925;83;21041;-88
2021/05/15 06:52:28;;;;;;;5.45;3.00;;;;;;;41.52;20.85;100669.73;1705709;83;21552;-87
2021/05/15 06:54:54;;;;;;;5.83;2.80;;;;;;;41.02;21.16;100676.12;1705928;83;20918;-89
2021/05/15 06:57:19;;;;;;;4.05;2.87;;;;;;;41.73;20.46;100674.27;1706004;83;20981;-87
2021/05/15 06:59:47;;;;;;;4.40;2.72;;;;;;;41.05;21.19;100681.50;1705832;82;20997;-85
2021/05/15 07:02:13;;;;;;;9.03;2.58;;;;;;;41.52;20.80;100675.39;1731053;81;21042;-86
2021/05/15 07:04:39;;;;;;;7.85;3.00;;;;;;;41.22;20.84;100677.75;1710095;82;21055;-86
2021/05/15 07:07:05;;;;;;;3.00;2.65;;;;;;;42.90;18.37;100675.58;1731019;82;21577;-86
2021/05/15 07:09:31;;;;;;;4.08;3.00;;;;;;;40.72;20.68;100676.39;1741780;81;20910;-84
2021/05/15 07:11:57;;;;;;;4.45;2.95;;;;;;;41.05;20.72;100681.50;1753164;80;21588;-85
2021/05/15 07:14:23;;;;;;;5.15;2.50;;;;;;;41.30;21.16;100677.59;1773228;80;21533;-85
2021/05/15 07:16:49;;;;;;;4.42;2.62;;;;;;;41.52;20.71;100690.18;1773428;80;20974;-84
2021/05/15 07:19:15;;;;;;;5.55;2.40;;;;;;;42.28;19.47;100692.55;1773442;80;20907;-83
2021/05/15 07:21:42;;;;;;;3.35;2.50;;;;;;;42.15;19.93;100691.95;1773468;80;20914;-82
2021/05/15 07:24:09;;;;;;;3.58;2.50;;;;;;;41.85;19.56;100690.91;1773316;80;21075;-83
2021/05/15 07:26:35;;;;;;;4.85;2.60;;;;;;;41.88;19.24;100694.98;1773330;80;21068;-84
2021/05/15 07:29:02;;;;;;;2.55;2.25;;;;;;;41.93;19.40;100697.22;1771525;80;21042;-84
2021/05/15 07:31:27;;;;;;;4.72;2.67;;;;;;;42.13;18.75;100700.16;1760980;80;21074;-85
2021/05/15 07:33:53;;;;;;;2.40;2.20;;;;;;;42.72;18.21;100697.74;1773766;80;20904;-86
2021/05/15 07:36:19;;;;;;;6.47;2.40;;;;;;;41.53;19.50;100696.80;1762463;80;21775;-87
2021/05/15 07:38:48;;;;;;;5.28;2.47;;;;;;;41.37;19.38;100694.87;1737958;82;21414;-87
2021/05/15 07:41:15;;;;;;;4.47;2.15;;;;;;;41.04;19.65;100695.45;1746767;82;21051;-85
2021/05/15 07:43:41;;;;;;;5.53;2.40;;;;;;;40.42;21.02;100700.60;1746447;82;21645;-85
2021/05/15 07:46:06;;;;;;;4.22;2.17;;;;;;;41.48;19.25;100690.98;1746707;82;20895;-84
2021/05/15 07:48:40;;;;;;;2.52;2.10;;;;;;;40.22;20.75;100708.03;1730442;81;21593;-87
2021/05/15 07:51:13;;;;;;;3.87;2.17;;;;;;;40.83;19.09;100706.41;1732537;82;21051;-85
2021/05/15 07:53:40;;;;;;;5.58;2.22;;;;;;;40.87;19.44;100702.02;1708329;82;21039;-84
2021/05/15 07:56:06;;;;;;;5.75;2.40;;;;;;;40.04;19.16;100704.46;1699917;82;21601;-84
2021/05/15 07:58:33;;;;;;;3.15;2.02;;;;;;;40.58;19.58;100698.92;1744948;80;21030;-84
2021/05/15 08:01:00;;;;;;;2.52;2.33;;;;;;;40.66;19.19;100692.39;1746839;80;21117;-84
2021/05/15 08:03:27;;;;;;;2.83;2.02;;;;;;;40.97;18.87;100700.77;1721537;82;21098;-85
2021/05/15 08:05:54;;;;;;;4.00;2.30;;;;;;;41.10;19.08;100702.73;1729980;81;21051;-84
2021/05/15 08:08:20;;;;;;;6.95;1.90;;;;;;;40.97;18.58;100708.47;1728791;82;21008;-84
2021/05/15 08:15:42;;;;;;;3.87;1.95;;;;;;;39.91;19.96;100723.50;1641531;87;21065;-85
2021/05/15 08:18:08;;;;;;;7.12;2.02;;;;;;;40.02;19.17;100721.06;1641591;87;21124;-87
2021/05/15 08:20:34;;;;;;;3.25;1.87;;;;;;;40.02;19.74;100721.06;1641564;87;21029;-84
2021/05/15 08:23:00;;;;;;;2.58;1.65;;;;;;;40.80;18.98;100717.24;1641495;87;21195;-85
2021/05/15 08:25:27;;;;;;;4.95;1.90;;;;;;;40.40;18.81;100731.34;1641908;87;21050;-85
2021/05/15 08:27:57;;;;;;;4.45;1.90;;;;;;;40.27;19.47;100724.39;1641542;87;21077;-85
2021/05/15 08:30:29;;;;;;;4.20;1.70;;;;;;;40.13;19.24;100725.69;1635950;87;21100;-84
2021/05/15 08:33:00;;;;;;;8.93;1.98;;;;;;;40.89;18.44;100724.97;1561396;91;21199;-84
2021/05/15 08:35:28;;;;;;;4.30;2.00;;;;;;;40.90;18.50;100726.53;1561399;91;21069;-85
2021/05/15 08:37:55;;;;;;;2.10;1.42;;;;;;;41.37;17.89;100721.75;1562239;91;21617;-85
2021/05/15 08:40:27;;;;;;;3.58;1.72;;;;;;;41.85;17.18;100724.89;1542443;91;21795;-85
2021/05/15 08:42:54;;;;;;;6.42;1.75;;;;;;;40.87;18.42;100721.80;1562092;91;21245;-84
2021/05/15 08:45:24;;;;;;;2.95;1.47;;;;;;;39.85;19.06;100728.95;1542713;91;21128;-85
2021/05/15 08:47:53;;;;;;;10.00;1.72;;;;;;;38.37;20.55;100725.16;1562382;91;21077;-84
2021/05/15 08:50:26;;;;;;;7.45;2.33;;;;;;;39.65;19.73;100728.45;1562529;91;21204;-85
2021/05/15 08:52:55;;;;;;;5.42;1.50;;;;;;;38.49;19.78;100699.68;1562059;91;21116;-84
2021/05/15 08:55:26;;;;;;;5.33;1.47;;;;;;;38.90;20.23;100725.39;1562822;91;21086;-84
2021/05/15 08:57:52;;;;;;;2.35;1.50;;;;;;;38.36;21.21;100720.78;1562648;91;21120;-83
2021/05/15 09:00:23;;;;;;;4.00;1.25;;;;;;;38.30;21.49;100721.77;1562615;91;21648;-84
2021/05/15 09:02:54;;;;;;;2.50;1.27;;;;;;;39.81;19.89;100724.70;1562718;91;27873;-84
2021/05/15 09:05:22;;;;;;;4.30;1.40;;;;;;;38.99;20.83;100719.84;1541371;93;21211;-86
2021/05/15 09:07:59;;;;;;;3.85;1.30;;;;;;;39.23;20.02;100713.97;1541360;93;21142;-86
2021/05/15 09:10:30;;;;;;;1.80;1.30;;;;;;;39.48;18.79;100698.25;1558618;91;21161;-85
2021/05/15 09:13:14;;;;;;;6.03;1.37;;;;;;;39.48;18.79;100698.25;1552812;91;21143;-83
2021/05/15 09:15:48;;;;;;;1.57;1.25;;;;;;;39.61;19.00;100716.52;1560912;91;21145;-83
2021/05/15 09:18:18;;;;;;;4.72;1.27;;;;;;;39.92;19.72;100718.82;1511569;94;21102;-83
2021/05/15 09:20:45;;;;;;;5.53;1.20;;;;;;;40.43;18.46;100713.47;1471471;97;21171;-85
2021/05/15 09:23:27;;;;;;;4.50;1.20;;;;;;;39.21;19.54;100700.97;1471659;97;21167;-83
2021/05/15 09:26:04;;;;;;;2.12;1.27;;;;;;;39.70;18.97;100706.08;1449648;99;21152;-84
2021/05/15 09:28:49;;;;;;;2.00;1.30;;;;;;;39.53;19.21;100706.10;1447579;99;21225;-82
2021/05/15 09:31:37;;;;;;;2.12;1.00;;;;;;;38.84;19.88;100703.38;1465477;97;21107;-84
2021/05/15 09:34:08;;;;;;;4.90;1.07;;;;;;;39.62;18.82;100709.62;1461063;96;21863;-84
2021/05/15 09:36:41;;;;;;;5.45;1.30;;;;;;;37.92;20.50;100709.81;1461649;98;21148;-80
2021/05/15 09:39:18;;;;;;;4.40;1.12;;;;;;;37.17;21.72;100706.97;1479362;95;21165;-80
2021/05/15 09:41:51;;;;;;;2.08;1.00;;;;;;;37.73;20.60;100710.91;1461397;98;21165;-80
2021/05/15 09:44:26;;;;;;;3.37;1.17;;;;;;;37.33;21.78;100697.74;1461179;98;21125;-80
2021/05/15 09:46:54;;;;;;;1.57;0.90;;;;;;;37.41;20.73;100708.16;1393431;102;21245;-80
2021/05/15 09:49:28;;;;;;;3.08;1.07;;;;;;;36.81;22.06;100708.46;1393602;102;21175;-81
2021/05/15 09:52:02;;;;;;;7.40;1.30;;;;;;;37.10;21.63;100701.55;1377247;104;21075;-81
2021/05/15 09:54:32;;;;;;;1.50;1.00;;;;;;;36.83;20.77;100697.59;1330800;107;21255;-81
2021/05/15 09:57:05;;;;;;;4.20;1.05;;;;;;;36.50;21.78;100705.14;1342144;106;21204;-80
2021/05/15 09:59:35;;;;;;;1.25;0.88;;;;;;;36.42;22.15;100703.75;1341311;106;21177;-83
2021/05/15 10:02:07;;;;;;;4.03;0.90;;;;;;;35.95;22.66;100701.91;1346063;105;21167;-82
2021/05/15 10:04:34;;;;;;;2.30;1.02;;;;;;;35.37;22.78;100706.38;1354466;104;21166;-82
2021/05/15 10:07:01;;;;;;;3.08;0.90;;;;;;;35.34;22.42;100706.45;1354567;105;21171;-82
2021/05/15 10:09:36;;;;;;;5.17;1.10;;;;;;;34.65;24.07;100698.94;1362392;102;21207;-83
2021/05/15 10:12:05;;;;;;;2.90;1.02;;;;;;;34.92;23.68;100708.13;1397750;101;21227;-83
2021/05/15 10:14:33;;;;;;;2.00;0.95;;;;;;;33.77;25.32;100708.84;1419686;98;21562;-83
2021/05/15 10:17:00;;;;;;;5.28;1.40;;;;;;;33.56;24.70;100705.67;1453824;98;21662;-83
2021/05/15 10:19:28;;;;;;;6.10;1.45;;;;;;;33.18;25.81;100699.20;1453785;98;21715;-83
2021/05/15 10:21:55;;;;;;;1.57;0.98;;;;;;;33.24;26.02;100703.95;1459738;95;21110;-83
2021/05/15 10:24:25;;;;;;;3.47;0.90;;;;;;;32.95;27.14;100710.95;1595880;85;21625;-83
2021/05/15 10:27:11;;;;;;;1.77;1.00;;;;;;;32.84;26.64;100710.23;1658996;86;21246;-83
2021/05/15 10:29:48;;;;;;;4.45;1.00;;;;;;;32.75;26.59;100712.09;1659033;86;21116;-85
2021/05/15 10:32:26;;;;;;;2.50;0.98;;;;;;;32.39;27.59;100708.09;1601269;89;22217;-84
2021/05/15 10:35:05;;;;;;;6.72;1.12;;;;;;;32.50;26.90;100709.44;1601739;89;21256;-84
2021/05/15 10:37:38;;;;;;;2.87;0.90;;;;;;;31.81;28.02;100711.67;1601665;89;21067;-83
2021/05/15 10:40:17;;;;;;;4.08;1.00;;;;;;;31.76;27.28;100709.90;1599335;89;21674;-83
2021/05/15 10:42:43;;;;;;;4.28;0.90;;;;;;;31.34;28.12;100711.54;1601389;89;21131;-83
2021/05/15 10:45:10;;;;;;;7.60;1.00;;;;;;;31.00;28.71;100710.53;1601591;89;21147;-83
2021/05/15 10:47:44;;;;;;;5.37;1.10;;;;;;;30.81;29.26;100715.89;1601402;89;21147;-83
2021/05/15 10:50:21;;;;;;;3.65;0.98;;;;;;;30.59;29.95;100719.22;1605774;88;21171;-83
2021/05/15 10:52:50;;;;;;;4.87;1.02;;;;;;;30.27;30.15;100708.00;1626933;88;21080;-83
2021/05/15 10:55:34;;;;;;;1.40;0.80;;;;;;;30.33;29.82;100714.77;1583193;90;21165;-83
2021/05/15 10:58:12;;;;;;;4.95;0.70;;;;;;;30.26;29.96;100707.77;1583166;90;21293;-83
2021/05/15 11:00:42;;;;;;;5.72;1.50;;;;;;;29.88;31.54;100712.73;1582993;90;21126;-83
2021/05/15 11:03:08;;;;;;;4.72;0.82;;;;;;;30.08;30.72;100708.47;1583020;90;21111;-83
2021/05/15 11:05:47;;;;;;;7.17;1.35;;;;;;;30.45;30.91;100707.45;1582941;90;21172;-83
2021/05/15 11:08:26;;;;;;;2.77;0.82;;;;;;;30.21;31.59;100698.41;1583003;89;21116;-83
2021/05/15 11:10:56;;;;;;;1.92;0.88;;;;;;;30.33;30.87;100698.08;1580964;90;21815;-82
2021/05/15 11:13:22;;;;;;;6.08;1.07;;;;;;;30.44;30.66;100688.36;1550846;92;21661;-82
2021/05/15 11:15:51;;;;;;;6.62;1.05;;;;;;;30.48;30.74;100701.10;1580379;90;20952;-84
2021/05/15 11:18:29;;;;;;;2.50;0.90;;;;;;;30.57;30.33;100701.32;1550295;92;21154;-83
2021/05/15 11:21:03;;;;;;;3.25;0.90;;;;;;;30.66;29.90;100699.75;1580860;90;21087;-84
2021/05/15 11:23:29;;;;;;;5.35;1.67;;;;;;;30.66;30.10;100692.79;1587538;89;21109;-84
2021/05/15 11:26:03;;;;;;;4.55;1.27;;;;;;;30.81;30.02;100681.71;1592416;89;20941;-83
2021/05/15 11:28:30;;;;;;;2.75;1.05;;;;;;;30.86;30.08;100680.73;1577734;87;21643;-84
2021/05/15 11:30:57;;;;;;;5.22;1.02;;;;;;;30.50;30.42;100687.60;1595532;89;21551;-83
2021/05/15 11:33:25;;;;;;;2.40;1.00;;;;;;;31.09;29.78;100688.69;1629056;87;21057;-84
2021/05/15 11:35:58;;;;;;;2.55;1.00;;;;;;;30.78;29.24;100686.05;1594414;90;21119;-83